Time;durP1;ratioP1;P1;durP2;ratioP2;P2;SDS_P1;SDS_P2;PMS_P1;PMS_P2;Temp;Humidity;BMP_temperature;BMP_pressure;BME280_temperature;BME280_humidity;BME280_pressure;Samples;Min_cycle;Max_cycle;Signal;HPM_P1;HPM_P2
2022/08/18 00:02:45;;;;;;;10.27;9.37;;;;;22.70;98592.00;;;;16849464;28;20223;-49
2022/08/18 00:10:49;;;;;;;10.30;9.23;;;;;22.70;98575.00;;;;16849371;28;20312;-49
2022/08/18 00:18:51;;;;;;;10.23;9.37;;;;;22.70;98583.00;;;;16849944;28;20185;-48
2022/08/18 00:26:55;;;;;;;11.60;10.43;;;;;23.10;98559.00;;;;16850095;28;20228;-49
2022/08/18 00:34:57;;;;;;;9.40;8.70;;;;;23.40;98561.00;;;;16848243;28;20374;-49
2022/08/18 00:43:04;;;;;;;9.80;8.90;;;;;23.40;98553.00;;;;16848960;28;20239;-49
2022/08/18 00:51:11;;;;;;;8.67;7.87;;;;;23.20;98554.00;;;;16848443;28;20228;-49
2022/08/18 00:59:18;;;;;;;8.47;7.77;;;;;23.50;98543.00;;;;16850020;28;20191;-49
2022/08/18 01:07:23;;;;;;;7.93;7.33;;;;;23.20;98523.00;;;;16862494;28;20228;-49
2022/08/18 01:15:28;;;;;;;8.27;7.60;;;;;23.00;98525.00;;;;16859987;28;20209;-49
2022/08/18 01:23:32;;;;;;;9.93;8.50;;;;;22.10;98520.00;;;;16859782;28;20748;-48
2022/08/18 01:31:37;;;;;;;8.90;8.30;;;;;20.70;98502.00;;;;16859494;28;20418;-48
2022/08/18 01:39:41;;;;;;;9.60;8.87;;;;;20.70;98497.00;;;;16859024;28;20216;-49
2022/08/18 01:47:44;;;;;;;9.53;8.77;;;;;20.60;98480.00;;;;16858174;28;20750;-49
2022/08/18 01:55:48;;;;;;;10.80;9.80;;;;;20.50;98477.00;;;;16858345;28;20702;-48
2022/08/18 02:03:53;;;;;;;10.20;9.40;;;;;20.80;98462.00;;;;16857161;28;20606;-50
2022/08/18 02:11:57;;;;;;;10.00;9.20;;;;;20.70;98467.00;;;;16855811;28;20224;-48
2022/08/18 02:19:59;;;;;;;10.00;9.20;;;;;21.00;98462.00;;;;16855512;28;20295;-50
2022/08/18 02:28:03;;;;;;;10.20;9.40;;;;;20.60;98462.00;;;;16855765;28;20315;-49
2022/08/18 02:36:06;;;;;;;10.57;9.87;;;;;20.80;98461.00;;;;16855433;28;20613;-49
2022/08/18 02:44:10;;;;;;;9.83;9.00;;;;;20.80;98455.00;;;;16856068;28;20685;-49
2022/08/18 02:52:13;;;;;;;9.10;8.40;;;;;21.50;98460.00;;;;16853660;28;20231;-50
2022/08/18 03:00:18;;;;;;;9.93;9.17;;;;;22.00;98456.00;;;;16853833;28;20307;-50
2022/08/18 03:08:20;;;;;;;10.07;9.27;;;;;20.60;98454.00;;;;16853632;28;20756;-50
2022/08/18 03:16:24;;;;;;;10.80;9.83;;;;;20.90;98439.00;;;;16853153;28;20697;-49
2022/08/18 03:24:27;;;;;;;10.37;9.57;;;;;20.70;98436.00;;;;16851835;28;20303;-49
2022/08/18 03:32:31;;;;;;;10.70;9.80;;;;;20.70;98437.00;;;;16822260;22;20571;-49
2022/08/18 03:40:34;;;;;;;9.50;8.60;;;;;20.60;98439.00;;;;16673801;28;20701;-49
2022/08/18 03:48:38;;;;;;;9.90;9.10;;;;;20.60;98425.00;;;;16660180;28;20222;-48
2022/08/18 03:56:42;;;;;;;10.70;9.83;;;;;20.10;98423.00;;;;16718673;28;20213;-48
2022/08/18 04:04:47;;;;;;;9.90;9.10;;;;;20.00;98428.00;;;;16718453;28;20272;-48
2022/08/18 04:12:49;;;;;;;9.47;8.57;;;;;20.20;98418.00;;;;16659581;28;20230;-49
2022/08/18 04:20:53;;;;;;;9.77;9.00;;;;;20.40;98428.00;;;;16629343;28;20317;-48
2022/08/18 04:28:56;;;;;;;10.57;9.73;;;;;19.90;98439.00;;;;16648475;28;20333;-48
2022/08/18 04:37:01;;;;;;;10.27;9.40;;;;;20.10;98447.00;;;;16652872;28;20674;-48
2022/08/18 04:45:05;;;;;;;9.57;8.87;;;;;20.10;98451.00;;;;16665247;28;20214;-49
2022/08/18 05:01:31;;;;;;;10.23;9.53;;;;;20.20;98465.00;;;;16664630;28;20203;-49
2022/08/18 05:09:35;;;;;;;9.23;8.43;;;;;20.30;98465.00;;;;16663974;28;20222;-48
2022/08/18 05:17:39;;;;;;;10.23;9.40;;;;;20.60;98464.00;;;;16662395;28;20722;-48
2022/08/18 05:25:42;;;;;;;9.43;8.73;;;;;20.90;98448.00;;;;16656749;28;20730;-49
2022/08/18 05:33:45;;;;;;;9.37;8.50;;;;;21.50;98444.00;;;;16662310;28;20265;-49
2022/08/18 05:41:51;;;;;;;9.33;8.63;;;;;21.20;98444.00;;;;16661488;28;20224;-48
2022/08/18 05:49:56;;;;;;;11.53;10.43;;;;;21.80;98430.00;;;;16660310;28;20786;-48
2022/08/18 05:58:04;;;;;;;11.73;10.70;;;;;22.80;98427.00;;;;16660702;28;20213;-48
2022/08/18 06:06:11;;;;;;;11.60;10.60;;;;;23.30;98445.00;;;;16659900;28;20222;-48
2022/08/18 06:14:15;;;;;;;11.10;10.13;;;;;23.70;98444.00;;;;16659063;28;20215;-48
2022/08/18 06:22:23;;;;;;;12.57;11.47;;;;;23.30;98471.00;;;;16658643;28;20222;-48
2022/08/18 06:30:34;;;;;;;14.33;13.03;;;;;23.00;98471.00;;;;16658611;28;20317;-48
2022/08/18 06:38:45;;;;;;;10.70;9.87;;;;;24.10;98446.00;;;;16659922;28;20785;-49
2022/08/18 06:46:54;;;;;;;13.37;11.17;;;;;24.20;98443.00;;;;16658090;28;20234;-49
2022/08/18 06:54:59;;;;;;;12.43;11.43;;;;;24.60;98430.00;;;;16656291;28;20212;-49
2022/08/18 07:03:06;;;;;;;12.03;11.00;;;;;24.20;98441.00;;;;16656331;28;20259;-49
2022/08/18 07:11:18;;;;;;;10.87;9.77;;;;;23.90;98459.00;;;;16656011;28;20233;-48
2022/08/18 07:19:29;;;;;;;11.93;10.93;;;;;23.80;98477.00;;;;16655658;28;20195;-49
2022/08/18 07:27:42;;;;;;;12.33;10.13;;;;;24.00;98486.00;;;;16654935;28;20234;-49
2022/08/18 07:35:50;;;;;;;10.53;9.70;;;;;24.50;98495.00;;;;16655198;28;20388;-49
2022/08/18 07:44:00;;;;;;;11.23;10.30;;;;;24.60;98511.00;;;;16654510;28;20215;-49
2022/08/18 07:52:08;;;;;;;12.67;10.47;;;;;24.40;98508.00;;;;16654052;28;20729;-49
2022/08/18 08:00:16;;;;;;;11.07;10.13;;;;;24.30;98503.00;;;;16653594;28;20421;-49
2022/08/18 08:08:25;;;;;;;11.43;10.53;;;;;23.90;98518.00;;;;16653069;28;20215;-49
2022/08/18 08:16:36;;;;;;;12.20;10.10;;;;;24.00;98519.00;;;;16652316;28;20214;-49
2022/08/18 08:24:45;;;;;;;9.83;9.13;;;;;24.50;98482.00;;;;16652322;28;20423;-49
2022/08/18 08:33:01;;;;;;;13.07;11.77;;;;;25.20;98455.00;;;;16651780;28;20266;-49
2022/08/18 08:41:10;;;;;;;11.07;10.10;;;;;25.60;98455.00;;;;16652328;28;20216;-49
2022/08/18 08:49:21;;;;;;;12.00;10.80;;;;;25.70;98463.00;;;;16644143;28;20219;-49
2022/08/18 08:57:31;;;;;;;12.33;11.30;;;;;25.40;98454.00;;;;16651586;28;20219;-49
2022/08/18 09:05:38;;;;;;;14.53;11.30;;;;;25.70;98473.00;;;;16651256;28;20253;-49
2022/08/18 09:14:14;;;;;;;12.90;11.63;;;;;24.70;98435.00;;;;16650724;28;20222;-50
2022/08/18 09:22:25;;;;;;;12.13;11.10;;;;;26.40;98413.00;;;;16648826;28;20233;-49
2022/08/18 09:30:43;;;;;;;11.33;10.40;;;;;25.10;98425.00;;;;16662301;28;20226;-49
2022/08/18 09:47:11;;;;;;;22.83;21.10;;;;;27.00;98445.00;;;;16860908;28;20252;-51
2022/08/18 09:55:43;;;;;;;10.33;9.43;;;;;26.60;98462.00;;;;16860109;28;20632;-50
2022/08/18 10:04:25;;;;;;;10.30;9.40;;;;;27.90;98461.00;;;;16859046;28;20217;-50
2022/08/18 10:12:40;;;;;;;11.37;10.37;;;;;27.40;98445.00;;;;16858480;28;20224;-51
2022/08/18 10:21:00;;;;;;;12.30;11.13;;;;;27.00;98426.00;;;;16854832;28;20680;-49
2022/08/18 10:29:04;;;;;;;10.37;9.40;;;;;27.80;98417.00;;;;16857998;28;20300;-50
2022/08/18 10:37:12;;;;;;;8.87;8.27;;;;;28.70;98381.00;;;;16856307;28;20272;-50
2022/08/18 10:45:20;;;;;;;10.70;10.00;;;;;27.40;98349.00;;;;16856569;28;20209;-47
2022/08/18 10:53:31;;;;;;;11.30;10.20;;;;;27.80;98370.00;;;;16854060;28;20247;-50
2022/08/18 11:01:58;;;;;;;9.50;8.53;;;;;27.80;98357.00;;;;16855483;28;20217;-49
2022/08/18 11:10:14;;;;;;;10.70;9.90;;;;;28.30;98353.00;;;;16815755;28;20228;-51
2022/08/18 11:18:30;;;;;;;10.87;10.00;;;;;28.80;98356.00;;;;16854683;28;20292;-50
2022/08/18 11:26:36;;;;;;;9.70;8.90;;;;;30.70;98357.00;;;;16853218;28;20321;-51
2022/08/18 11:34:41;;;;;;;9.47;8.73;;;;;31.40;98339.00;;;;16853418;28;20675;-50
2022/08/18 11:42:55;;;;;;;11.93;11.03;;;;;28.50;98354.00;;;;16853061;28;20204;-51
2022/08/18 11:51:01;;;;;;;11.90;10.80;;;;;31.20;98348.00;;;;16852268;28;20216;-51
2022/08/18 11:59:07;;;;;;;13.47;12.27;;;;;28.70;98327.00;;;;16852436;28;20219;-51
2022/08/18 12:07:12;;;;;;;10.67;9.80;;;;;30.30;98319.00;;;;16851745;28;20227;-51
2022/08/18 12:15:35;;;;;;;12.47;11.33;;;;;29.80;98316.00;;;;16851769;28;20270;-49
2022/08/18 12:23:40;;;;;;;10.63;9.83;;;;;30.40;98315.00;;;;16851476;28;20308;-49
2022/08/18 12:31:44;;;;;;;11.20;10.17;;;;;29.50;98311.00;;;;16850266;28;20235;-49
2022/08/18 12:39:47;;;;;;;9.60;8.80;;;;;30.80;98307.00;;;;16851280;28;20189;-51
2022/08/18 12:47:51;;;;;;;9.70;8.90;;;;;30.40;98284.00;;;;16850159;28;20319;-50
2022/08/18 12:55:53;;;;;;;9.40;8.70;;;;;31.50;98266.00;;;;16854591;28;20299;-51
2022/08/18 13:03:58;;;;;;;10.20;9.30;;;;;33.80;98245.00;;;;16862972;28;20211;-50
2022/08/18 13:12:00;;;;;;;10.77;9.80;;;;;30.70;98226.00;;;;16862124;28;20221;-50
2022/08/18 13:20:08;;;;;;;10.53;9.70;;;;;31.60;98220.00;;;;16862149;28;20270;-51
2022/08/18 13:28:10;;;;;;;9.47;8.67;;;;;33.80;98225.00;;;;16861997;28;20240;-48
2022/08/18 13:36:14;;;;;;;8.60;7.70;;;;;34.60;98236.00;;;;16861032;28;20239;-51
2022/08/18 13:44:17;;;;;;;8.70;8.13;;;;;33.80;98223.00;;;;16860724;28;20219;-50
2022/08/18 13:52:21;;;;;;;8.83;8.03;;;;;31.30;98220.00;;;;16859198;28;20231;-51
2022/08/18 14:00:24;;;;;;;7.87;7.37;;;;;32.70;98199.00;;;;16860521;28;20717;-50
2022/08/18 14:08:28;;;;;;;8.93;8.33;;;;;29.80;98209.00;;;;16857622;28;20221;-50
2022/08/18 14:16:30;;;;;;;8.20;7.60;;;;;32.60;98213.00;;;;16858795;28;20319;-51
2022/08/18 14:32:54;;;;;;;7.97;7.40;;;;;32.30;98212.00;;;;16856827;28;20223;-49
2022/08/18 14:40:58;;;;;;;8.37;7.47;;;;;32.80;98214.00;;;;16858180;28;20679;-50
2022/08/18 14:49:01;;;;;;;8.47;7.63;;;;;31.90;98206.00;;;;16855148;28;20224;-51
2022/08/18 14:57:10;;;;;;;7.90;7.33;;;;;31.40;98203.00;;;;16856333;28;20720;-50
2022/08/18 15:05:13;;;;;;;8.77;8.07;;;;;30.00;98209.00;;;;16854713;28;20212;-49
2022/08/18 15:13:17;;;;;;;8.90;8.20;;;;;30.50;98222.00;;;;16853905;28;20307;-50
2022/08/18 15:29:41;;;;;;;8.17;7.60;;;;;30.30;98224.00;;;;16854121;28;20235;-50
2022/08/18 15:37:44;;;;;;;8.77;8.17;;;;;29.30;98217.00;;;;16859147;22;20311;-79
2022/08/18 15:45:48;;;;;;;9.20;8.50;;;;;30.30;98210.00;;;;16863156;28;20280;-79
2022/08/18 15:53:51;;;;;;;8.43;7.83;;;;;29.10;98203.00;;;;16795837;22;20827;-49
2022/08/18 16:01:55;;;;;;;8.30;7.70;;;;;29.30;98196.00;;;;16720110;28;20284;-49
2022/08/18 16:09:57;;;;;;;8.73;8.13;;;;;29.70;98179.00;;;;16716605;28;20237;-50
2022/08/18 16:18:01;;;;;;;8.70;8.07;;;;;29.00;98188.00;;;;16717542;28;20224;-50
2022/08/18 16:26:04;;;;;;;9.23;8.60;;;;;29.40;98188.00;;;;16717950;28;20213;-49
2022/08/18 16:34:08;;;;;;;10.07;9.37;;;;;29.10;98196.00;;;;16725882;28;20229;-50
2022/08/18 16:42:11;;;;;;;9.10;8.40;;;;;28.30;98188.00;;;;16729411;28;20224;-50
2022/08/18 16:50:16;;;;;;;12.73;11.53;;;;;28.10;98190.00;;;;16728545;28;20232;-49
2022/08/18 17:06:40;;;;;;;8.13;7.53;;;;;27.70;98185.00;;;;16728558;28;20218;-49
2022/08/18 17:14:43;;;;;;;9.03;8.23;;;;;27.60;98193.00;;;;16727854;28;20226;-49
2022/08/18 17:22:46;;;;;;;9.43;8.63;;;;;27.00;98198.00;;;;16726912;28;20225;-49
2022/08/18 17:30:51;;;;;;;9.67;8.97;;;;;26.80;98199.00;;;;16727464;28;20236;-48
2022/08/18 17:38:58;;;;;;;10.17;9.47;;;;;26.80;98203.00;;;;16726074;28;20323;-48
2022/08/18 17:47:03;;;;;;;10.63;9.83;;;;;26.60;98214.00;;;;16724848;28;20221;-48
2022/08/18 17:55:11;;;;;;;10.67;9.70;;;;;26.40;98217.00;;;;16725048;28;20611;-48
2022/08/18 18:03:14;;;;;;;10.53;9.73;;;;;26.30;98214.00;;;;16724824;28;20236;-48
2022/08/18 18:11:21;;;;;;;11.10;10.27;;;;;26.20;98228.00;;;;16724850;28;20263;-48
2022/08/18 18:19:26;;;;;;;12.27;11.03;;;;;26.30;98232.00;;;;16724146;28;20688;-48
2022/08/18 18:27:35;;;;;;;12.10;11.10;;;;;26.10;98235.00;;;;16723571;28;20283;-48
2022/08/18 18:35:50;;;;;;;16.07;14.80;;;;;26.20;98245.00;;;;16722919;28;20232;-48
2022/08/18 18:44:06;;;;;;;15.83;14.63;;;;;26.30;98248.00;;;;16722550;28;20210;-48
2022/08/18 18:52:15;;;;;;;15.80;14.50;;;;;26.40;98263.00;;;;16720887;28;20240;-48
2022/08/18 19:00:23;;;;;;;15.53;14.20;;;;;26.20;98261.00;;;;16722354;28;20749;-48
2022/08/18 19:08:34;;;;;;;15.00;13.77;;;;;25.90;98268.00;;;;16721550;28;20210;-48
2022/08/18 19:16:41;;;;;;;16.47;15.10;;;;;25.70;98260.00;;;;16720168;28;20248;-48
2022/08/18 19:24:52;;;;;;;17.00;15.60;;;;;25.80;98274.00;;;;16719382;28;20302;-47
2022/08/18 19:32:58;;;;;;;16.47;15.27;;;;;25.60;98278.00;;;;16719951;28;20316;-48
2022/08/18 19:41:06;;;;;;;17.93;16.63;;;;;25.80;98272.00;;;;16719186;28;20190;-48
2022/08/18 19:49:17;;;;;;;19.53;18.03;;;;;25.60;98288.00;;;;16717376;28;20310;-48
2022/08/18 19:57:33;;;;;;;18.50;17.00;;;;;25.50;98304.00;;;;16718109;28;20214;-48
2022/08/18 20:05:43;;;;;;;18.90;17.40;;;;;25.30;98305.00;;;;16716616;28;20230;-48
2022/08/18 20:13:48;;;;;;;18.83;17.40;;;;;25.30;98299.00;;;;16717277;28;20308;-48
2022/08/18 20:22:01;;;;;;;17.53;16.23;;;;;25.30;98311.00;;;;16717231;28;20206;-48
2022/08/18 20:30:24;;;;;;;17.60;16.30;;;;;25.40;98316.00;;;;16716922;28;20222;-48
2022/08/18 20:38:34;;;;;;;17.43;16.03;;;;;25.10;98311.00;;;;16716938;28;20309;-48
2022/08/18 20:46:41;;;;;;;16.70;15.30;;;;;25.00;98304.00;;;;16716970;28;20744;-48
2022/08/18 20:54:51;;;;;;;17.60;16.00;;;;;24.90;98307.00;;;;16715690;28;20222;-48
2022/08/18 21:02:55;;;;;;;16.47;15.17;;;;;24.90;98310.00;;;;16716209;28;20218;-48
2022/08/18 21:11:01;;;;;;;14.67;13.47;;;;;24.80;98324.00;;;;16715916;28;20225;-48
2022/08/18 21:19:08;;;;;;;15.10;13.80;;;;;25.00;98330.00;;;;16722438;28;20221;-48
2022/08/18 21:27:20;;;;;;;14.37;13.17;;;;;24.90;98346.00;;;;16727257;28;20206;-49
2022/08/18 21:35:26;;;;;;;14.30;13.10;;;;;24.90;98353.00;;;;16750430;22;20592;-51
2022/08/18 21:43:41;;;;;;;14.27;12.97;;;;;25.00;98347.00;;;;16718514;28;20321;-50
2022/08/18 21:51:47;;;;;;;13.37;12.17;;;;;25.40;98372.00;;;;16660880;28;20223;-51
2022/08/18 22:00:13;;;;;;;13.73;12.33;;;;;24.90;98368.00;;;;16661443;28;20288;-51
2022/08/18 22:08:18;;;;;;;14.30;13.30;;;;;24.60;98370.00;;;;16660891;28;20223;-51
2022/08/18 22:16:28;;;;;;;14.77;13.63;;;;;24.40;98373.00;;;;16659322;28;20249;-51
2022/08/18 22:24:38;;;;;;;15.13;13.93;;;;;24.30;98356.00;;;;16658886;28;20225;-49
2022/08/18 22:32:44;;;;;;;14.27;13.07;;;;;24.40;98363.00;;;;16658436;28;20230;-51
2022/08/18 22:40:47;;;;;;;16.13;14.60;;;;;24.40;98361.00;;;;16658819;28;20195;-49
2022/08/18 22:48:51;;;;;;;16.27;14.97;;;;;24.40;98371.00;;;;16657440;28;20229;-51
2022/08/18 22:56:54;;;;;;;16.63;15.13;;;;;24.90;98387.00;;;;16658078;28;20257;-52
2022/08/18 23:04:57;;;;;;;15.33;14.03;;;;;24.50;98385.00;;;;16652492;28;20211;-51
2022/08/18 23:13:00;;;;;;;16.80;15.30;;;;;24.40;98398.00;;;;16655615;28;20313;-51
2022/08/18 23:21:04;;;;;;;16.27;14.83;;;;;24.30;98384.00;;;;16656196;28;20325;-51
2022/08/18 23:29:08;;;;;;;16.40;14.80;;;;;24.20;98392.00;;;;16655700;28;20221;-51
2022/08/18 23:37:12;;;;;;;15.70;14.40;;;;;24.00;98374.00;;;;16653952;28;20234;-51
2022/08/18 23:45:14;;;;;;;16.53;15.23;;;;;23.90;98377.00;;;;16653747;28;20361;-51
2022/08/18 23:53:18;;;;;;;17.67;16.17;;;;;23.80;98364.00;;;;16651782;28;20226;-51
